Time;durP1;ratioP1;P1;durP2;ratioP2;P2;SDS_P1;SDS_P2;PMS_P1;PMS_P2;Temp;Humidity;BMP_temperature;BMP_pressure;BME280_temperature;BME280_humidity;BME280_pressure;Samples;Min_cycle;Max_cycle;Signal;HPM_P1;HPM_P2
2023/01/24 00:00:09;;;;;;;;;;;;;;;20.63;46.25;103459.28;4896228;29;6447;-56
2023/01/24 00:02:36;;;;;;;;;;;;;;;20.63;46.14;103452.78;4889890;29;4188;-57
2023/01/24 00:05:02;;;;;;;;;;;;;;;20.63;46.16;103447.78;4893553;29;5217;-56
2023/01/24 00:07:29;;;;;;;;;;;;;;;20.64;46.06;103454.31;4897873;29;5167;-58
2023/01/24 00:09:55;;;;;;;;;;;;;;;20.64;46.09;103454.31;4893117;29;4161;-57
2023/01/24 00:12:21;;;;;;;;;;;;;;;20.64;46.03;103454.31;4898975;29;4165;-56
2023/01/24 00:14:48;;;;;;;;;;;;;;;20.62;46.05;103451.25;4894359;29;4155;-56
2023/01/24 00:17:14;;;;;;;;;;;;;;;20.62;46.18;103451.25;4893749;29;6375;-58
2023/01/24 00:19:41;;;;;;;;;;;;;;;20.61;46.10;103455.47;4889385;29;4153;-57
2023/01/24 00:22:07;;;;;;;;;;;;;;;20.60;46.24;103453.97;4894594;29;5444;-56
2023/01/24 00:24:34;;;;;;;;;;;;;;;20.59;46.35;103458.97;4898049;29;4327;-57
2023/01/24 00:27:01;;;;;;;;;;;;;;;20.58;46.21;103457.44;4894610;29;4139;-58
2023/01/24 00:29:27;;;;;;;;;;;;;;;20.58;46.29;103462.44;4899284;29;4018;-57
2023/01/24 00:31:53;;;;;;;;;;;;;;;20.57;46.32;103460.88;4897145;29;4095;-58
2023/01/24 00:34:20;;;;;;;;;;;;;;;20.57;46.38;103460.88;4894668;29;4089;-56
2023/01/24 00:36:47;;;;;;;;;;;;;;;20.54;46.44;103459.16;4902439;29;5130;-57
2023/01/24 00:39:13;;;;;;;;;;;;;;;20.55;46.33;103452.81;4892426;29;4604;-57
2023/01/24 00:41:39;;;;;;;;;;;;;;;20.57;46.06;103443.59;4898022;29;4229;-57
2023/01/24 00:44:06;;;;;;;;;;;;;;;20.58;46.19;103450.91;4909155;29;4316;-57
2023/01/24 00:46:32;;;;;;;;;;;;;;;20.57;46.14;103453.03;4893247;29;4327;-57
2023/01/24 00:49:00;;;;;;;;;;;;;;;20.57;46.10;103455.13;4893986;29;4164;-57
2023/01/24 00:51:26;;;;;;;;;;;;;;;20.57;46.01;103455.13;4894526;29;4206;-57
2023/01/24 00:53:53;;;;;;;;;;;;;;;20.56;46.08;103454.38;4895531;29;5231;-57
2023/01/24 00:56:19;;;;;;;;;;;;;;;20.55;46.32;103458.59;4894352;29;4290;-57
2023/01/24 00:58:46;;;;;;;;;;;;;;;20.54;46.24;103450.53;4896830;29;5279;-57
2023/01/24 01:01:12;;;;;;;;;;;;;;;20.54;46.10;103451.28;4904996;29;5585;-57
2023/01/24 01:03:38;;;;;;;;;;;;;;;20.53;46.06;103443.25;4889409;29;4136;-57
2023/01/24 01:06:06;;;;;;;;;;;;;;;20.53;46.18;103449.00;4899291;29;4285;-56
2023/01/24 01:08:32;;;;;;;;;;;;;;;20.50;46.14;103451.69;4910744;29;4215;-58
2023/01/24 01:10:58;;;;;;;;;;;;;;;20.50;46.18;103445.16;4897769;29;4471;-57
2023/01/24 01:13:25;;;;;;;;;;;;;;;20.49;46.21;103455.91;4898142;29;4159;-57
2023/01/24 01:15:59;;;;;;;;;;;;;;;20.49;46.08;103455.16;4891449;29;4192;-57
2023/01/24 01:18:26;;;;;;;;;;;;;;;20.50;46.07;103462.44;4897688;29;4298;-57
2023/01/24 01:20:52;;;;;;;;;;;;;;;20.49;46.02;103461.69;4895577;29;4168;-56
2023/01/24 01:23:18;;;;;;;;;;;;;;;20.50;46.28;103471.06;4897616;29;4259;-57
2023/01/24 01:25:45;;;;;;;;;;;;;;;20.52;46.19;103468.38;4902840;29;4232;-57
2023/01/24 01:28:11;;;;;;;;;;;;;;;20.53;45.92;103469.16;4895483;29;4255;-57
2023/01/24 01:30:37;;;;;;;;;;;;;;;20.51;46.07;103470.50;4894196;29;4162;-57
2023/01/24 01:33:04;;;;;;;;;;;;;;;20.51;46.13;103464.72;4892652;29;4318;-56
2023/01/24 01:35:30;;;;;;;;;;;;;;;20.51;45.94;103463.97;4898142;29;4142;-57
2023/01/24 01:37:56;;;;;;;;;;;;;;;20.50;45.93;103468.97;4902333;29;4407;-57
2023/01/24 01:40:23;;;;;;;;;;;;;;;20.49;46.01;103472.44;4897098;29;6241;-57
2023/01/24 01:42:50;;;;;;;;;;;;;;;20.48;46.09;103471.69;4898291;29;4479;-57
2023/01/24 01:45:43;;;;;;;;;;;;;;;20.48;46.05;103471.69;4897579;29;4227;-57
2023/01/24 01:48:24;;;;;;;;;;;;;;;20.46;46.25;103468.63;4898115;29;4335;-55
2023/01/24 01:50:56;;;;;;;;;;;;;;;20.46;46.08;103470.75;4895419;29;4239;-58
2023/01/24 01:53:23;;;;;;;;;;;;;;;20.45;46.22;103472.81;4897382;29;5548;-57
2023/01/24 01:55:50;;;;;;;;;;;;;;;20.45;46.22;103484.34;4896158;29;5616;-57
2023/01/24 01:58:16;;;;;;;;;;;;;;;20.45;46.17;103472.81;4896477;29;4266;-58
2023/01/24 02:00:49;;;;;;;;;;;;;;;20.45;45.94;103475.72;4895777;29;4134;-56
2023/01/24 02:06:01;;;;;;;;;;;;;;;20.48;46.03;103476.69;4895746;29;4160;-58
2023/01/24 02:08:27;;;;;;;;;;;;;;;20.47;45.96;103475.88;4900609;29;4175;-58
2023/01/24 02:21:39;;;;;;;;;;;;;;;20.44;45.85;103479.94;4882113;29;5467;-58
2023/01/24 02:24:08;;;;;;;;;;;;;;;20.44;46.11;103485.72;4887330;29;4163;-57
2023/01/24 02:26:34;;;;;;;;;;;;;;;20.42;46.09;103497.03;4897410;29;5118;-57
2023/01/24 02:29:05;;;;;;;;;;;;;;;20.42;46.08;103484.78;4906976;29;4186;-57
2023/01/24 02:31:51;;;;;;;;;;;;;;;20.41;46.21;103484.00;4892049;29;4276;-56
2023/01/24 02:34:18;;;;;;;;;;;;;;;20.41;45.96;103486.88;4897419;29;4055;-57
2023/01/24 02:36:44;;;;;;;;;;;;;;;20.42;46.02;103485.53;4889796;29;5192;-57
2023/01/24 02:39:15;;;;;;;;;;;;;;;20.42;46.04;103494.16;4911043;29;5320;-57
2023/01/24 02:41:48;;;;;;;;;;;;;;;20.44;45.93;103484.94;4895533;29;4531;-58
2023/01/24 02:44:38;;;;;;;;;;;;;;;20.45;45.90;103495.84;4893992;29;4217;-55
2023/01/24 02:47:04;;;;;;;;;;;;;;;20.45;46.09;103490.09;4892949;29;5180;-56
2023/01/24 02:49:31;;;;;;;;;;;;;;;20.44;45.93;103500.09;4910986;29;4043;-58
2023/01/24 02:54:42;;;;;;;;;;;;;;;20.43;45.95;103492.03;4909442;29;4110;-58
2023/01/24 02:59:54;;;;;;;;;;;;;;;20.42;46.12;103490.53;4895167;29;4146;-58
2023/01/24 03:02:20;;;;;;;;;;;;;;;20.40;45.91;103482.47;4891837;29;4279;-57
2023/01/24 03:04:48;;;;;;;;;;;;;;;20.39;46.05;103480.19;4887898;29;5260;-56
2023/01/24 03:07:14;;;;;;;;;;;;;;;20.37;46.08;103472.13;4914472;29;4273;-57
2023/01/24 03:09:47;;;;;;;;;;;;;;;20.38;45.90;103479.41;4903549;29;4172;-58
2023/01/24 03:34:31;;;;;;;;;;;;;;;20.39;45.91;103483.06;4904857;29;5985;-57
2023/01/24 03:36:58;;;;;;;;;;;;;;;20.37;45.90;103480.78;4913624;29;5260;-57
2023/01/24 03:42:10;;;;;;;;;;;;;;;20.38;45.95;103479.41;4899103;29;5287;-57
2023/01/24 03:44:37;;;;;;;;;;;;;;;20.39;45.85;103480.94;4908598;29;4203;-57
2023/01/24 03:47:04;;;;;;;;;;;;;;;20.40;45.83;103475.94;4891564;29;5322;-57
2023/01/24 03:52:26;;;;;;;;;;;;;;;20.41;45.82;103475.38;4890515;29;6048;-57
2023/01/24 03:54:53;;;;;;;;;;;;;;;20.42;45.98;103468.25;4909683;29;4151;-58
2023/01/24 03:57:19;;;;;;;;;;;;;;;20.43;45.85;103472.69;4908170;29;4031;-57
2023/01/24 03:59:46;;;;;;;;;;;;;;;20.44;45.85;103474.19;4899831;29;4278;-56
2023/01/24 04:02:13;;;;;;;;;;;;;;;20.45;45.95;103463.44;4903133;29;4222;-57
2023/01/24 04:07:25;;;;;;;;;;;;;;;20.46;46.06;103471.50;4900076;29;4109;-57
2023/01/24 04:10:00;;;;;;;;;;;;;;;20.46;45.96;103470.75;4916646;29;4174;-57
2023/01/24 04:12:30;;;;;;;;;;;;;;;20.46;46.10;103470.75;4908722;29;4334;-58
2023/01/24 04:15:00;;;;;;;;;;;;;;;20.45;46.05;103469.94;4896427;29;4056;-58
2023/01/24 04:17:27;;;;;;;;;;;;;;;20.45;46.05;103460.56;4897017;29;4353;-57
2023/01/24 04:19:54;;;;;;;;;;;;;;;20.44;45.96;103465.56;4911786;29;4005;-57
2023/01/24 04:22:21;;;;;;;;;;;;;;;20.44;45.96;103470.56;4911455;29;4040;-56
2023/01/24 04:24:47;;;;;;;;;;;;;;;20.44;46.13;103476.31;4910684;29;5044;-57
2023/01/24 04:27:14;;;;;;;;;;;;;;;20.43;46.00;103481.31;4899148;29;4093;-55
2023/01/24 04:29:54;;;;;;;;;;;;;;;20.42;45.99;103482.66;4908044;29;4198;-57
2023/01/24 04:32:20;;;;;;;;;;;;;;;20.42;45.98;103474.00;4894778;29;4116;-57
2023/01/24 04:34:52;;;;;;;;;;;;;;;20.43;45.86;103475.56;4912833;29;5356;-57
2023/01/24 04:37:32;;;;;;;;;;;;;;;20.40;45.89;103473.84;4911434;29;4240;-57
2023/01/24 04:40:00;;;;;;;;;;;;;;;20.40;45.83;103479.59;4911890;29;6079;-57
2023/01/24 04:42:26;;;;;;;;;;;;;;;20.40;45.90;103470.94;4909821;29;4217;-56
2023/01/24 04:44:53;;;;;;;;;;;;;;;20.40;45.80;103476.72;4910757;29;4218;-55
2023/01/24 04:47:19;;;;;;;;;;;;;;;20.40;45.74;103464.44;4904380;29;4248;-57
2023/01/24 04:49:46;;;;;;;;;;;;;;;20.41;45.73;103466.75;4900413;29;4225;-57
2023/01/24 04:52:17;;;;;;;;;;;;;;;20.41;45.74;103466.75;4893973;29;4233;-57
2023/01/24 04:55:00;;;;;;;;;;;;;;;20.42;45.82;103468.25;4913072;29;4187;-56
2023/01/24 04:57:27;;;;;;;;;;;;;;;20.43;45.87;103458.28;4899749;29;4080;-57
2023/01/24 04:59:53;;;;;;;;;;;;;;;20.43;45.74;103466.91;4901281;29;4052;-55
2023/01/24 05:02:20;;;;;;;;;;;;;;;20.43;45.86;103469.81;4910564;29;4157;-58
2023/01/24 05:04:46;;;;;;;;;;;;;;;20.44;45.85;103465.56;4899446;29;4192;-54
2023/01/24 05:07:13;;;;;;;;;;;;;;;20.45;45.85;103463.44;4912932;29;5314;-57
2023/01/24 05:09:43;;;;;;;;;;;;;;;20.44;45.76;103471.31;4895530;29;4073;-58
2023/01/24 05:12:10;;;;;;;;;;;;;;;20.45;46.11;103460.56;4893155;29;5046;-58
2023/01/24 05:14:37;;;;;;;;;;;;;;;20.46;45.99;103457.09;4896698;29;5334;-55
2023/01/24 05:17:03;;;;;;;;;;;;;;;20.45;45.93;103458.44;4901685;29;4237;-56
2023/01/24 05:19:32;;;;;;;;;;;;;;;20.45;45.81;103461.31;4915152;29;4207;-56
2023/01/24 05:21:59;;;;;;;;;;;;;;;20.43;46.17;103458.28;4899036;29;4150;-57
2023/01/24 05:24:29;;;;;;;;;;;;;;;20.42;46.16;103459.63;4907274;29;4027;-56
2023/01/24 05:26:56;;;;;;;;;;;;;;;20.43;46.08;103463.25;4905820;29;4967;-57
2023/01/24 05:29:25;;;;;;;;;;;;;;;20.43;45.81;103469.00;4891983;29;5289;-57
2023/01/24 05:31:54;;;;;;;;;;;;;;;20.42;46.00;103471.13;4882890;29;5229;-58
2023/01/24 05:34:20;;;;;;;;;;;;;;;20.48;45.75;103470.91;4903288;29;4242;-57
2023/01/24 05:36:47;;;;;;;;;;;;;;;20.49;45.93;103466.69;4891333;29;4266;-58
2023/01/24 05:39:14;;;;;;;;;;;;;;;20.41;46.44;103466.75;4911893;29;4252;-57
2023/01/24 05:41:42;;;;;;;;;;;;;;;20.42;46.21;103471.13;4909243;29;4146;-58
2023/01/24 05:44:10;;;;;;;;;;;;;;;20.53;45.90;103480.66;4893212;29;4064;-58
2023/01/24 05:46:38;;;;;;;;;;;;;;;20.56;45.83;103473.72;4903827;29;4159;-58
2023/01/24 05:49:25;;;;;;;;;;;;;;;20.53;46.24;103477.78;4901011;29;4255;-58
2023/01/24 05:51:53;;;;;;;;;;;;;;;20.50;46.23;103474.72;4907513;29;4160;-58
2023/01/24 05:54:34;;;;;;;;;;;;;;;20.49;46.32;103478.94;4892620;29;5308;-59
2023/01/24 05:57:03;;;;;;;;;;;;;;;20.49;46.11;103490.47;4912532;29;4152;-59
2023/01/24 05:59:44;;;;;;;;;;;;;;;20.49;46.05;103481.81;4882617;29;4141;-58
2023/01/24 06:02:11;;;;;;;;;;;;;;;20.50;47.24;103492.00;4886781;29;4172;-58
2023/01/24 06:04:37;;;;;;;;;;;;;;;20.50;46.51;103497.75;4897962;29;5210;-58
2023/01/24 06:07:04;;;;;;;;;;;;;;;20.50;46.55;103497.75;4890864;29;4959;-59
2023/01/24 06:09:31;;;;;;;;;;;;;;;20.50;46.66;103509.28;4895650;29;4219;-58
2023/01/24 06:11:57;;;;;;;;;;;;;;;20.52;46.88;103505.78;4895732;29;4129;-58
2023/01/24 06:14:24;;;;;;;;;;;;;;;20.51;46.87;103499.28;4891309;29;4229;-58
2023/01/24 06:16:51;;;;;;;;;;;;;;;20.51;46.92;103507.91;4895094;29;3912;-58
2023/01/24 06:19:18;;;;;;;;;;;;;;;20.53;46.92;103506.59;4892478;29;4222;-58
2023/01/24 06:21:54;;;;;;;;;;;;;;;20.51;47.00;103504.28;4889478;29;4033;-59
2023/01/24 06:24:26;;;;;;;;;;;;;;;20.53;47.02;103512.34;4907504;29;4192;-58
2023/01/24 06:27:01;;;;;;;;;;;;;;;20.54;46.94;103516.72;4895841;29;4094;-58
2023/01/24 06:29:27;;;;;;;;;;;;;;;20.54;47.05;103519.63;4892686;29;4034;-58
2023/01/24 06:32:12;;;;;;;;;;;;;;;20.54;47.05;103525.38;4895719;29;4916;-60
2023/01/24 06:34:57;;;;;;;;;;;;;;;20.55;47.54;103518.25;4893015;29;4256;-60
2023/01/24 06:37:28;;;;;;;;;;;;;;;20.53;47.70;103524.63;4897710;29;4267;-60
2023/01/24 06:39:54;;;;;;;;;;;;;;;20.51;47.46;103530.94;4893395;29;4346;-60
2023/01/24 06:42:21;;;;;;;;;;;;;;;20.50;47.61;103526.56;4893571;29;4591;-60
2023/01/24 06:44:48;;;;;;;;;;;;;;;20.51;47.46;103539.59;4909196;29;4177;-59
2023/01/24 06:47:14;;;;;;;;;;;;;;;20.50;47.59;103535.19;4897002;29;4025;-60
2023/01/24 06:49:40;;;;;;;;;;;;;;;20.48;47.58;103535.00;4896706;29;5281;-59
2023/01/24 06:52:07;;;;;;;;;;;;;;;20.47;47.71;103532.69;4898786;29;4290;-60
2023/01/24 06:54:33;;;;;;;;;;;;;;;20.49;47.49;103535.75;4895624;29;4211;-61
2023/01/24 06:56:59;;;;;;;;;;;;;;;20.50;47.45;103543.03;4893086;29;4297;-60
2023/01/24 06:59:26;;;;;;;;;;;;;;;20.50;47.62;103546.69;4893761;29;4208;-59
2023/01/24 07:01:52;;;;;;;;;;;;;;;20.50;47.36;103543.81;4892962;29;4208;-60
2023/01/24 07:04:19;;;;;;;;;;;;;;;20.50;47.45;103543.81;4891166;29;5133;-59
2023/01/24 07:06:46;;;;;;;;;;;;;;;20.50;47.76;103549.59;4893685;29;4282;-60
2023/01/24 07:09:13;;;;;;;;;;;;;;;20.55;47.36;103550.72;4892141;29;4150;-65
2023/01/24 07:11:39;;;;;;;;;;;;;;;20.51;47.46;103551.09;4887809;29;4351;-66
2023/01/24 07:14:05;;;;;;;;;;;;;;;20.50;47.43;103561.09;4893515;29;4166;-65
2023/01/24 07:16:32;;;;;;;;;;;;;;;20.49;47.54;103564.56;4893416;29;4324;-65
2023/01/24 07:18:58;;;;;;;;;;;;;;;20.47;47.39;103562.25;4899912;29;4152;-65
2023/01/24 07:21:25;;;;;;;;;;;;;;;20.35;46.79;103569.81;4891639;29;4184;-65
2023/01/24 07:23:51;;;;;;;;;;;;;;;19.52;43.48;103580.22;4890334;29;4346;-64
2023/01/24 07:26:17;;;;;;;;;;;;;;;19.84;43.66;103577.47;4895556;29;4572;-65
2023/01/24 07:28:44;;;;;;;;;;;;;;;20.13;44.12;103579.31;4892590;29;4207;-64
2023/01/24 07:31:11;;;;;;;;;;;;;;;20.28;44.98;103574.25;4893803;29;5639;-63
2023/01/24 07:33:37;;;;;;;;;;;;;;;20.37;45.28;103575.75;4907016;29;4163;-66
2023/01/24 07:36:11;;;;;;;;;;;;;;;20.57;45.44;103570.28;4893448;29;4170;-64
2023/01/24 07:38:37;;;;;;;;;;;;;;;20.59;45.59;103573.34;4891217;29;4725;-65
2023/01/24 07:41:07;;;;;;;;;;;;;;;20.56;45.68;103568.75;4900792;29;4256;-63
2023/01/24 07:43:33;;;;;;;;;;;;;;;20.48;45.54;103568.78;4894282;29;4205;-65
2023/01/24 07:45:59;;;;;;;;;;;;;;;20.46;45.60;103560.72;4902353;29;4201;-63
2023/01/24 07:48:26;;;;;;;;;;;;;;;20.48;45.71;103560.16;4904120;29;4142;-60
2023/01/24 07:50:52;;;;;;;;;;;;;;;20.48;45.61;103560.91;4902025;29;5249;-63
2023/01/24 07:53:19;;;;;;;;;;;;;;;20.49;45.72;103565.31;4900027;29;4226;-62
2023/01/24 07:55:45;;;;;;;;;;;;;;;20.51;45.81;103561.84;4895834;29;4230;-63
2023/01/24 07:58:27;;;;;;;;;;;;;;;20.51;45.68;103568.38;4895570;29;4214;-62
2023/01/24 08:00:53;;;;;;;;;;;;;;;20.53;45.97;103569.91;4896988;29;4135;-63
2023/01/24 08:03:20;;;;;;;;;;;;;;;20.56;46.14;103574.50;4896296;29;4327;-62
2023/01/24 08:05:46;;;;;;;;;;;;;;;20.53;46.00;103573.56;4899818;29;5256;-62
2023/01/24 08:08:13;;;;;;;;;;;;;;;20.56;45.97;103580.25;4896689;29;4220;-61
2023/01/24 08:10:39;;;;;;;;;;;;;;;20.54;46.00;103585.84;4889550;29;5134;-68
2023/01/24 08:13:05;;;;;;;;;;;;;;;20.49;46.01;103581.81;4890520;29;4227;-64
2023/01/24 08:15:32;;;;;;;;;;;;;;;20.49;45.88;103585.47;4893507;29;4305;-62
2023/01/24 08:18:00;;;;;;;;;;;;;;;20.51;46.02;103591.41;4892736;29;5356;-63
2023/01/24 08:20:29;;;;;;;;;;;;;;;20.51;45.90;103591.41;4900075;29;4229;-63
2023/01/24 08:22:58;;;;;;;;;;;;;;;20.53;45.81;103592.94;4900608;29;4148;-63
2023/01/24 08:25:25;;;;;;;;;;;;;;;20.53;45.83;103598.72;4898831;29;4145;-63
2023/01/24 08:27:51;;;;;;;;;;;;;;;20.53;46.01;103592.94;4899968;29;4283;-62
2023/01/24 08:30:18;;;;;;;;;;;;;;;20.54;45.91;103588.72;4897683;29;5298;-62
2023/01/24 08:32:44;;;;;;;;;;;;;;;20.55;45.98;103590.22;4897316;29;5259;-63
2023/01/24 08:35:10;;;;;;;;;;;;;;;20.56;46.16;103598.31;4898832;29;4054;-63
2023/01/24 08:37:37;;;;;;;;;;;;;;;20.57;46.13;103593.31;4900205;29;4157;-63
2023/01/24 08:40:03;;;;;;;;;;;;;;;20.59;46.29;103587.75;4897225;29;4125;-65
2023/01/24 08:42:30;;;;;;;;;;;;;;;20.55;46.20;103595.97;4897648;29;4477;-65
2023/01/24 08:44:56;;;;;;;;;;;;;;;20.62;45.99;103601.75;4895394;29;4500;-64
2023/01/24 08:47:23;;;;;;;;;;;;;;;20.64;46.13;103595.41;4894737;29;4193;-65
2023/01/24 08:49:49;;;;;;;;;;;;;;;20.65;46.11;103594.06;4900169;29;4280;-65
2023/01/24 08:52:15;;;;;;;;;;;;;;;20.62;46.18;103584.47;4896771;29;4130;-65
2023/01/24 08:54:42;;;;;;;;;;;;;;;20.61;46.21;103593.69;4894448;29;4662;-64
2023/01/24 08:57:09;;;;;;;;;;;;;;;20.60;46.25;103598.69;4892445;29;4202;-65
2023/01/24 08:59:36;;;;;;;;;;;;;;;20.60;46.26;103586.41;4908897;29;4285;-65
2023/01/24 09:02:03;;;;;;;;;;;;;;;20.60;46.41;103590.03;4897897;29;3931;-65
2023/01/24 09:04:30;;;;;;;;;;;;;;;20.61;46.16;103585.03;4899586;29;4138;-65
2023/01/24 09:06:56;;;;;;;;;;;;;;;20.62;46.24;103595.22;4895715;29;5390;-65
2023/01/24 09:09:24;;;;;;;;;;;;;;;20.63;46.18;103591.00;4893421;29;5682;-65
2023/01/24 09:11:52;;;;;;;;;;;;;;;20.63;46.26;103591.00;4894735;29;4016;-65
2023/01/24 09:14:18;;;;;;;;;;;;;;;20.64;46.38;103599.06;4899000;29;4258;-65
2023/01/24 09:16:44;;;;;;;;;;;;;;;20.64;46.36;103604.06;4894914;29;4491;-65
2023/01/24 09:19:11;;;;;;;;;;;;;;;20.64;46.36;103598.28;4898100;29;5387;-65
2023/01/24 09:21:38;;;;;;;;;;;;;;;20.63;46.39;103594.63;4900988;29;4041;-65
2023/01/24 09:24:04;;;;;;;;;;;;;;;20.59;46.43;103602.13;4898755;29;4260;-65
2023/01/24 09:26:30;;;;;;;;;;;;;;;20.06;44.60;103598.88;4894731;29;4500;-65
2023/01/24 09:28:57;;;;;;;;;;;;;;;20.27;44.80;103594.97;4899878;29;5161;-65
2023/01/24 09:31:23;;;;;;;;;;;;;;;20.41;44.88;103604.13;4901036;29;4172;-66
2023/01/24 09:33:49;;;;;;;;;;;;;;;20.48;44.57;103603.34;4903682;29;4116;-66
2023/01/24 09:36:25;;;;;;;;;;;;;;;20.53;44.53;103604.47;4900768;29;4002;-66
2023/01/24 09:38:52;;;;;;;;;;;;;;;20.56;45.22;103600.41;4893298;29;5565;-65
2023/01/24 09:41:40;;;;;;;;;;;;;;;20.91;44.67;103607.91;4901631;29;4652;-64
2023/01/24 09:44:10;;;;;;;;;;;;;;;21.04;45.12;103611.84;4903918;29;5243;-64
2023/01/24 09:46:38;;;;;;;;;;;;;;;21.06;45.16;103598.38;4905111;29;5254;-63
2023/01/24 09:49:08;;;;;;;;;;;;;;;21.05;45.28;103605.50;4906583;29;4110;-64
2023/01/24 09:51:34;;;;;;;;;;;;;;;21.07;45.05;103604.91;4900672;29;4128;-64
2023/01/24 09:54:01;;;;;;;;;;;;;;;21.08;44.96;103598.56;4902656;29;4167;-65
2023/01/24 09:56:34;;;;;;;;;;;;;;;21.21;45.16;103590.94;4900772;29;4169;-64
2023/01/24 09:59:10;;;;;;;;;;;;;;;21.36;44.47;103595.84;4899500;29;4057;-65
2023/01/24 10:01:40;;;;;;;;;;;;;;;21.27;44.52;103595.13;4898198;29;4206;-65
2023/01/24 10:04:13;;;;;;;;;;;;;;;21.15;44.78;103599.84;4899492;29;4229;-64
2023/01/24 10:06:39;;;;;;;;;;;;;;;21.13;45.14;103586.03;4900694;29;6149;-62
2023/01/24 10:09:10;;;;;;;;;;;;;;;21.16;44.89;103584.06;4903668;29;4302;-64
2023/01/24 10:11:36;;;;;;;;;;;;;;;21.30;45.22;103576.69;4915312;29;4133;-62
2023/01/24 10:14:12;;;;;;;;;;;;;;;21.50;44.50;103579.78;4900899;29;4040;-64
2023/01/24 10:16:56;;;;;;;;;;;;;;;21.42;44.24;103568.31;4896279;29;4151;-65
2023/01/24 10:19:38;;;;;;;;;;;;;;;21.28;44.60;103561.31;4894733;29;4084;-63
2023/01/24 10:22:22;;;;;;;;;;;;;;;21.27;45.14;103554.78;5051572;27;1648;-65
2023/01/24 10:24:52;;;;;;;;;;;;;;;21.45;44.57;103554.84;5053672;28;1794;-63
2023/01/24 10:27:23;;;;;;;;;;;;;;;21.34;44.42;103553.94;5053317;28;1758;-59
2023/01/24 10:29:53;;;;;;;;;;;;;;;21.25;44.62;103557.47;5084689;28;2858;-65
2023/01/24 10:32:20;;;;;;;;;;;;;;;21.41;44.59;103545.84;5059050;28;1751;-65
2023/01/24 10:34:46;;;;;;;;;;;;;;;21.31;44.59;103549.38;5052572;28;1832;-66
2023/01/24 10:37:20;;;;;;;;;;;;;;;21.23;44.88;103557.31;5054997;28;1595;-64
2023/01/24 10:39:46;;;;;;;;;;;;;;;21.31;44.92;103552.25;5054227;28;1970;-65
2023/01/24 10:42:25;;;;;;;;;;;;;;;21.62;44.22;103549.06;5051728;28;2882;-65
2023/01/24 10:44:52;;;;;;;;;;;;;;;21.66;44.01;103554.44;5051115;28;2725;-65
2023/01/24 10:47:33;;;;;;;;;;;;;;;21.60;43.73;103548.94;5053005;28;2662;-66
2023/01/24 10:50:06;;;;;;;;;;;;;;;21.60;43.82;103551.81;5054036;28;1732;-64
2023/01/24 10:52:33;;;;;;;;;;;;;;;21.55;43.72;103552.81;5051998;28;1762;-67
2023/01/24 10:55:01;;;;;;;;;;;;;;;21.41;44.37;103555.25;5054853;28;1719;-64
2023/01/24 10:57:37;;;;;;;;;;;;;;;21.37;44.25;103554.88;5050959;28;2669;-64
2023/01/24 11:00:25;;;;;;;;;;;;;;;21.46;44.17;103550.59;5072581;28;1910;-65
2023/01/24 11:02:52;;;;;;;;;;;;;;;21.58;43.91;103553.75;5050919;28;4595;-64
2023/01/24 11:05:18;;;;;;;;;;;;;;;21.66;43.56;103560.97;5054972;28;2900;-66
2023/01/24 11:07:46;;;;;;;;;;;;;;;21.66;43.72;103558.06;5051552;28;2703;-68
2023/01/24 11:10:14;;;;;;;;;;;;;;;21.41;44.23;103557.38;5053641;28;1663;-64
2023/01/24 11:12:50;;;;;;;;;;;;;;;21.45;44.74;103557.72;5052884;28;2597;-68
2023/01/24 11:15:23;;;;;;;;;;;;;;;21.45;43.96;103563.50;5054475;28;2146;-64
2023/01/24 11:17:57;;;;;;;;;;;;;;;21.49;43.98;103560.97;5050031;28;2438;-65
2023/01/24 11:20:28;;;;;;;;;;;;;;;21.40;44.13;103558.72;5056055;28;1910;-63
2023/01/24 11:23:01;;;;;;;;;;;;;;;21.38;44.08;103553.53;5072531;28;3281;-66
2023/01/24 11:25:27;;;;;;;;;;;;;;;21.38;44.02;103552.78;5074254;28;3625;-65
2023/01/24 11:27:53;;;;;;;;;;;;;;;21.36;44.18;103543.94;5065875;28;3299;-66
2023/01/24 11:30:20;;;;;;;;;;;;;;;21.42;43.96;103547.38;5069236;28;3332;-65
2023/01/24 11:32:58;;;;;;;;;;;;;;;21.41;43.89;103545.84;5057276;28;3406;-65
2023/01/24 11:35:24;;;;;;;;;;;;;;;21.34;43.91;103544.53;5059783;28;3226;-64
2023/01/24 11:38:12;;;;;;;;;;;;;;;21.28;44.35;103547.69;5064078;28;2692;-64
2023/01/24 11:40:40;;;;;;;;;;;;;;;21.30;44.38;103538.41;5053056;28;3536;-64
2023/01/24 11:43:20;;;;;;;;;;;;;;;21.42;44.25;103541.63;5050647;28;3238;-64
2023/01/24 11:45:46;;;;;;;;;;;;;;;21.41;44.35;103540.84;5050904;28;3453;-63
2023/01/24 11:48:20;;;;;;;;;;;;;;;21.38;44.81;103535.47;5054323;28;3405;-65
2023/01/24 11:50:53;;;;;;;;;;;;;;;21.37;44.18;103526.03;5052403;28;4475;-70
2023/01/24 11:53:44;;;;;;;;;;;;;;;21.39;44.24;103529.09;5053652;28;2753;-71
2023/01/24 11:56:20;;;;;;;;;;;;;;;21.42;44.28;103527.22;5051665;28;2856;-70
2023/01/24 11:58:53;;;;;;;;;;;;;;;21.36;44.30;103526.66;5051020;28;2710;-70
2023/01/24 12:01:35;;;;;;;;;;;;;;;21.38;44.02;103529.72;5053160;28;2809;-73
2023/01/24 12:04:16;;;;;;;;;;;;;;;21.39;43.96;103525.47;5053393;28;3028;-70
2023/01/24 12:06:46;;;;;;;;;;;;;;;21.41;43.77;103528.56;5054973;28;4631;-68
2023/01/24 12:09:22;;;;;;;;;;;;;;;21.39;43.98;103519.69;5053439;28;3095;-70
2023/01/24 12:11:52;;;;;;;;;;;;;;;21.40;43.98;103521.25;5052433;28;2706;-70
2023/01/24 12:14:18;;;;;;;;;;;;;;;21.42;44.26;103518.56;5051628;28;2775;-71
2023/01/24 12:16:57;;;;;;;;;;;;;;;21.48;44.21;103511.16;5054068;28;2790;-71
2023/01/24 12:19:33;;;;;;;;;;;;;;;21.48;44.12;103510.41;5051410;28;3070;-72
2023/01/24 12:21:59;;;;;;;;;;;;;;;21.48;43.91;103504.63;5054038;28;3266;-71
2023/01/24 12:24:26;;;;;;;;;;;;;;;21.33;44.39;103502.66;5052608;28;4258;-74
2023/01/24 12:26:53;;;;;;;;;;;;;;;21.21;44.83;103504.50;5053981;28;2821;-76
2023/01/24 12:29:24;;;;;;;;;;;;;;;21.26;44.48;103498.50;5052416;28;2722;-75
2023/01/24 12:31:51;;;;;;;;;;;;;;;21.28;44.64;103497.88;5059627;28;1972;-74
2023/01/24 12:34:32;;;;;;;;;;;;;;;21.26;44.56;103494.88;5054260;28;2826;-75
2023/01/24 12:37:10;;;;;;;;;;;;;;;21.30;44.47;103501.72;5051328;28;2804;-73
2023/01/24 12:39:55;;;;;;;;;;;;;;;21.28;44.27;103497.88;5053477;28;1555;-76
2023/01/24 12:42:23;;;;;;;;;;;;;;;21.21;44.48;103498.72;5048896;28;4598;-76
2023/01/24 12:44:52;;;;;;;;;;;;;;;21.16;44.71;103499.75;5045952;28;2998;-76
2023/01/24 12:47:25;;;;;;;;;;;;;;;21.15;44.91;103496.09;5057277;28;1918;-75
2023/01/24 12:50:00;;;;;;;;;;;;;;;21.15;44.72;103509.75;5051467;28;3303;-75
2023/01/24 12:52:53;;;;;;;;;;;;;;;21.21;45.02;103505.28;5051881;28;4742;-75
2023/01/24 12:55:24;;;;;;;;;;;;;;;21.26;44.75;103512.91;5041290;28;2722;-77
2023/01/24 12:57:51;;;;;;;;;;;;;;;21.32;44.53;103506.88;5049822;28;2775;-73
2023/01/24 13:00:18;;;;;;;;;;;;;;;21.32;44.66;103504.75;5049855;28;2781;-73
2023/01/24 13:03:04;;;;;;;;;;;;;;;21.30;44.34;103513.25;5056074;28;1914;-79
2023/01/24 13:05:31;;;;;;;;;;;;;;;21.27;44.64;103517.31;5056327;28;1578;-74
2023/01/24 13:08:01;;;;;;;;;;;;;;;21.31;44.47;103500.38;5057369;28;1539;-74
2023/01/24 13:10:37;;;;;;;;;;;;;;;21.29;44.67;103505.94;5053112;28;2745;-73
2023/01/24 13:13:04;;;;;;;;;;;;;;;21.37;44.55;103505.09;5054948;28;1723;-76
2023/01/24 13:15:33;;;;;;;;;;;;;;;21.34;44.39;103501.28;5054397;28;2111;-72
2023/01/24 13:18:19;;;;;;;;;;;;;;;21.33;44.80;103500.53;5054737;28;1611;-78
2023/01/24 13:20:57;;;;;;;;;;;;;;;21.42;44.26;103496.25;5051859;28;4906;-76
2023/01/24 13:23:24;;;;;;;;;;;;;;;21.38;44.22;103501.66;5050879;28;4129;-75
2023/01/24 13:25:50;;;;;;;;;;;;;;;21.38;44.30;103489.34;5047191;28;3067;-74
2023/01/24 13:28:22;;;;;;;;;;;;;;;21.41;44.14;103496.84;5056280;28;4406;-74
2023/01/24 13:30:51;;;;;;;;;;;;;;;21.42;44.40;103492.63;5048717;28;3738;-75
2023/01/24 13:33:17;;;;;;;;;;;;;;;21.38;44.30;103489.34;5053730;28;2218;-73
2023/01/24 13:35:48;;;;;;;;;;;;;;;21.33;44.12;103489.00;5052741;28;3063;-76
2023/01/24 13:38:24;;;;;;;;;;;;;;;21.30;44.40;103489.41;5056164;28;1717;-77
2023/01/24 13:40:58;;;;;;;;;;;;;;;21.31;44.40;103485.94;5051775;28;2784;-74
2023/01/24 13:43:36;;;;;;;;;;;;;;;21.39;44.48;103485.09;5054007;28;2927;-77
2023/01/24 13:46:03;;;;;;;;;;;;;;;21.34;44.55;103487.63;5054325;28;2966;-75
2023/01/24 13:48:41;;;;;;;;;;;;;;;21.20;44.59;103480.69;5056154;28;1764;-74